createdAt,value
2017-12-02T00:01:14.811Z,100994.75
2017-12-02T00:03:42.290Z,101002.67
2017-12-02T00:06:09.731Z,101006.99
2017-12-02T00:08:37.191Z,101007.14
2017-12-02T00:11:04.649Z,101012.48
2017-12-02T00:13:32.144Z,101018.24
2017-12-02T00:15:59.623Z,101014.20
2017-12-02T00:18:27.117Z,101024.16
2017-12-02T00:20:54.577Z,101023.55
2017-12-02T00:23:22.053Z,101026.13
2017-12-02T00:25:49.518Z,101038.79
2017-12-02T00:28:17.004Z,101034.63
2017-12-02T00:30:44.484Z,101037.73
2017-12-02T00:33:11.971Z,101044.57
2017-12-02T00:35:39.415Z,101044.83
2017-12-02T00:38:06.869Z,101050.63
2017-12-02T00:40:34.344Z,101044.48
2017-12-02T00:43:01.880Z,101060.66
2017-12-02T00:45:29.347Z,101049.58
2017-12-02T00:47:57.710Z,101056.11
2017-12-02T00:50:25.178Z,101049.44
2017-12-02T00:52:52.644Z,101049.03
2017-12-02T00:55:20.127Z,101053.12
2017-12-02T00:57:47.607Z,101057.28
2017-12-02T01:00:15.085Z,101050.95
2017-12-02T01:02:42.553Z,101058.27
2017-12-02T01:05:10.037Z,101056.67
2017-12-02T01:07:37.483Z,101061.33
2017-12-02T01:10:04.954Z,101063.96
2017-12-02T01:12:32.421Z,101062.70
2017-12-02T01:14:59.890Z,101065.92
2017-12-02T01:17:27.355Z,101061.95
2017-12-02T01:19:54.873Z,101061.81
2017-12-02T01:22:22.356Z,101061.77
2017-12-02T01:24:49.807Z,101063.80
2017-12-02T01:27:17.295Z,101071.30
2017-12-02T01:29:44.755Z,101075.95
2017-12-02T01:32:12.231Z,101080.67
2017-12-02T01:34:39.697Z,101077.02
2017-12-02T01:37:07.203Z,101083.86
2017-12-02T01:39:34.659Z,101082.72
2017-12-02T01:42:02.170Z,101083.03
2017-12-02T01:44:29.642Z,101091.51
2017-12-02T01:46:57.111Z,101098.05
2017-12-02T01:49:24.589Z,101105.05
2017-12-02T01:51:52.052Z,101106.33
2017-12-02T01:54:19.558Z,101110.56
2017-12-02T01:56:47.104Z,101114.73
2017-12-02T01:59:14.580Z,101112.05
2017-12-02T02:01:42.028Z,101113.60
2017-12-02T02:04:09.557Z,101113.45
2017-12-02T02:06:37.018Z,101114.23
2017-12-02T02:09:04.506Z,101119.61
2017-12-02T02:11:31.964Z,101120.33
2017-12-02T02:13:59.441Z,101119.84
2017-12-02T02:16:26.898Z,101124.03
2017-12-02T02:18:54.437Z,101128.81
2017-12-02T02:21:21.915Z,101125.75
2017-12-02T02:23:49.373Z,101125.63
2017-12-02T02:26:16.854Z,101127.23
2017-12-02T02:28:44.308Z,101132.23
2017-12-02T02:31:11.785Z,101138.32
2017-12-02T02:33:39.235Z,101143.71
2017-12-02T02:36:06.814Z,101136.06
2017-12-02T02:38:34.382Z,101143.30
2017-12-02T02:41:01.894Z,101141.31
2017-12-02T02:43:29.361Z,101136.58
2017-12-02T02:45:56.901Z,101143.20
2017-12-02T02:48:24.369Z,101143.11
2017-12-02T02:50:51.873Z,101156.63
2017-12-02T02:53:19.429Z,101158.41
2017-12-02T02:55:46.989Z,101160.44
2017-12-02T02:58:14.461Z,101173.59
2017-12-02T03:00:41.941Z,101172.89
2017-12-02T03:03:09.410Z,101178.31
2017-12-02T03:05:37.175Z,101183.96
2017-12-02T03:08:04.637Z,101183.41
2017-12-02T03:10:32.096Z,101185.59
2017-12-02T03:12:59.564Z,101189.06
2017-12-02T03:15:27.053Z,101191.32
2017-12-02T03:17:54.531Z,101199.12
2017-12-02T03:20:22.058Z,101199.80
2017-12-02T03:22:49.547Z,101201.57
2017-12-02T03:25:17.005Z,101206.08
2017-12-02T03:27:44.484Z,101209.44
2017-12-02T03:30:11.965Z,101209.28
2017-12-02T03:32:39.448Z,101207.48
2017-12-02T03:35:06.969Z,101213.20
2017-12-02T03:37:34.450Z,101212.93
2017-12-02T03:40:01.926Z,101215.05
2017-12-02T03:42:29.429Z,101208.81
2017-12-02T03:44:56.937Z,101214.20
2017-12-02T03:47:24.411Z,101215.32
2017-12-02T03:49:51.890Z,101218.50
2017-12-02T03:52:19.353Z,101218.17
2017-12-02T03:54:46.837Z,101217.75
2017-12-02T03:57:14.313Z,101215.12
2017-12-02T03:59:41.779Z,101224.43
2017-12-02T04:02:09.335Z,101223.23
2017-12-02T04:04:36.830Z,101215.31
2017-12-02T04:07:04.299Z,101218.59
2017-12-02T04:09:31.786Z,101223.16
2017-12-02T04:11:59.268Z,101213.33
2017-12-02T04:14:26.744Z,101216.42
2017-12-02T04:16:54.244Z,101222.02
2017-12-02T04:19:21.729Z,101222.57
2017-12-02T04:21:49.235Z,101227.52
2017-12-02T04:24:16.721Z,101236.33
2017-12-02T04:26:44.180Z,101238.02
2017-12-02T04:29:11.756Z,101234.06
2017-12-02T04:31:39.242Z,101237.69
2017-12-02T04:34:06.786Z,101239.35
2017-12-02T04:36:34.337Z,101239.44
2017-12-02T04:39:01.787Z,101236.41
2017-12-02T04:41:29.273Z,101234.09
2017-12-02T04:43:56.737Z,101233.14
2017-12-02T04:46:24.265Z,101235.27
2017-12-02T04:48:51.725Z,101239.21
2017-12-02T04:51:19.210Z,101241.29
2017-12-02T04:53:46.741Z,101247.29
2017-12-02T04:56:14.219Z,101253.63
2017-12-02T04:58:41.681Z,101248.42
2017-12-02T05:01:09.203Z,101254.95
2017-12-02T05:03:36.665Z,101244.07
2017-12-02T05:06:04.145Z,101249.48
2017-12-02T05:08:31.606Z,101255.59
2017-12-02T05:10:59.093Z,101248.20
2017-12-02T05:13:26.541Z,101251.34
2017-12-02T05:15:54.073Z,101254.38
2017-12-02T05:18:21.537Z,101255.60
2017-12-02T05:20:49.027Z,101251.66
2017-12-02T05:23:16.517Z,101257.33
2017-12-02T05:25:43.982Z,101261.80
2017-12-02T05:28:11.469Z,101269.45
2017-12-02T05:30:38.937Z,101267.33
2017-12-02T05:33:06.421Z,101271.26
2017-12-02T05:35:33.915Z,101269.96
2017-12-02T05:38:01.465Z,101270.00
2017-12-02T05:40:28.975Z,101272.18
2017-12-02T05:42:56.484Z,101273.02
2017-12-02T05:45:23.944Z,101276.34
2017-12-02T05:47:51.501Z,101285.83
2017-12-02T05:50:19.053Z,101287.85
2017-12-02T05:52:46.558Z,101290.55
2017-12-02T05:55:14.039Z,101288.48
2017-12-02T05:57:41.567Z,101297.89
2017-12-02T06:00:09.047Z,101305.95
2017-12-02T06:02:36.517Z,101309.31
2017-12-02T06:05:04.095Z,101317.58
2017-12-02T06:07:31.665Z,101319.07
2017-12-02T06:09:59.135Z,101318.31
2017-12-02T06:12:26.605Z,101325.50
2017-12-02T06:14:54.082Z,101328.11
2017-12-02T06:17:21.557Z,101326.02
2017-12-02T06:19:49.029Z,101322.02
2017-12-02T06:22:16.493Z,101326.48
2017-12-02T06:24:43.987Z,101319.98
2017-12-02T06:27:11.445Z,101319.39
2017-12-02T06:29:38.925Z,101320.72
2017-12-02T06:32:06.429Z,101319.38
2017-12-02T06:34:33.908Z,101320.73
2017-12-02T06:37:01.386Z,101324.70
2017-12-02T06:39:28.865Z,101322.91
2017-12-02T06:41:56.350Z,101325.41
2017-12-02T06:44:23.826Z,101326.09
2017-12-02T06:46:51.316Z,101325.34
2017-12-02T06:49:18.777Z,101319.41
2017-12-02T06:51:46.286Z,101330.55
2017-12-02T06:54:13.767Z,101330.97
2017-12-02T06:56:41.249Z,101334.65
2017-12-02T06:59:08.772Z,101336.59
2017-12-02T07:01:36.273Z,101345.91
2017-12-02T07:04:03.729Z,101352.63
2017-12-02T07:06:31.191Z,101358.78
2017-12-02T07:08:58.663Z,101347.81
2017-12-02T07:11:26.162Z,101357.07
2017-12-02T07:13:53.604Z,101359.44
2017-12-02T07:16:21.065Z,101349.88
2017-12-02T07:18:48.548Z,101354.89
2017-12-02T07:21:16.009Z,101362.44
2017-12-02T07:23:43.475Z,101365.14
2017-12-02T07:26:10.925Z,101372.41
2017-12-02T07:28:38.412Z,101379.86
2017-12-02T07:31:05.924Z,101381.30
2017-12-02T07:33:33.409Z,101383.17
2017-12-02T07:36:00.864Z,101388.74
2017-12-02T07:38:28.366Z,101389.41
2017-12-02T07:40:55.869Z,101393.48
2017-12-02T07:43:23.315Z,101387.96
2017-12-02T07:45:50.797Z,101392.03
2017-12-02T07:48:18.267Z,101404.09
2017-12-02T07:50:45.750Z,101404.69
2017-12-02T07:53:13.227Z,101397.88
2017-12-02T07:55:40.707Z,101404.31
2017-12-02T07:58:08.181Z,101411.55
2017-12-02T08:00:35.666Z,101415.78
2017-12-02T08:03:03.154Z,101419.61
2017-12-02T08:05:30.709Z,101420.06
2017-12-02T08:07:58.179Z,101417.98
2017-12-02T08:10:25.665Z,101422.97
2017-12-02T08:12:53.132Z,101428.16
2017-12-02T08:15:20.598Z,101425.04
2017-12-02T08:17:48.064Z,101425.50
2017-12-02T08:20:15.739Z,101434.37
2017-12-02T08:22:43.210Z,101424.70
2017-12-02T08:25:10.774Z,101431.45
2017-12-02T08:27:38.245Z,101436.05
2017-12-02T08:30:05.777Z,101439.92
2017-12-02T08:32:33.341Z,101435.65
2017-12-02T08:35:00.814Z,101425.27
2017-12-02T08:37:28.300Z,101436.15
2017-12-02T08:39:55.769Z,101433.23
2017-12-02T08:42:23.359Z,101441.75
2017-12-02T08:44:50.840Z,101443.25
2017-12-02T08:47:18.366Z,101448.62
2017-12-02T08:49:45.841Z,101450.40
2017-12-02T08:52:13.315Z,101452.48
2017-12-02T08:54:40.770Z,101458.13
2017-12-02T08:57:08.262Z,101461.61
2017-12-02T08:59:35.719Z,101463.94
2017-12-02T09:02:03.217Z,101461.38
2017-12-02T09:04:30.732Z,101454.63
2017-12-02T09:06:58.193Z,101457.98
2017-12-02T09:09:25.665Z,101459.20
2017-12-02T09:11:53.248Z,101465.44
2017-12-02T09:14:20.703Z,101470.50
2017-12-02T09:16:48.210Z,101474.50
2017-12-02T09:19:15.679Z,101476.89
2017-12-02T09:21:43.166Z,101472.43
2017-12-02T09:24:10.735Z,101466.06
2017-12-02T09:26:38.302Z,101472.88
2017-12-02T09:29:05.906Z,101474.44
2017-12-02T09:31:33.413Z,101478.92
2017-12-02T09:34:00.917Z,101469.95
2017-12-02T09:36:28.385Z,101474.41
2017-12-02T09:38:55.866Z,101483.26
2017-12-02T09:41:23.324Z,101477.52
2017-12-02T09:43:50.834Z,101474.31
2017-12-02T09:46:18.302Z,101478.44
2017-12-02T09:48:45.802Z,101481.83
2017-12-02T09:51:13.280Z,101478.08
2017-12-02T09:53:40.745Z,101480.06
2017-12-02T09:56:08.233Z,101484.09
2017-12-02T09:58:35.748Z,101479.81
2017-12-02T10:01:03.223Z,101475.11
2017-12-02T10:03:30.761Z,101477.15
2017-12-02T10:05:58.528Z,101471.11
2017-12-02T10:08:25.994Z,101477.63
2017-12-02T10:10:53.542Z,101472.04
2017-12-02T10:13:21.018Z,101466.08
2017-12-02T10:15:48.508Z,101461.55
2017-12-02T10:18:15.973Z,101458.09
2017-12-02T10:20:43.470Z,101462.73
2017-12-02T10:23:10.927Z,101458.62
2017-12-02T10:25:38.581Z,101462.62
2017-12-02T10:28:06.046Z,101460.61
2017-12-02T10:30:33.521Z,101461.88
2017-12-02T10:33:01.114Z,101461.33
2017-12-02T10:35:28.601Z,101455.13
2017-12-02T10:37:56.080Z,101462.95
2017-12-02T10:40:23.541Z,101464.54
2017-12-02T10:42:51.058Z,101453.94
2017-12-02T10:45:18.520Z,101448.54
2017-12-02T10:47:46.045Z,101440.18
2017-12-02T10:50:13.499Z,101442.27
2017-12-02T10:52:40.967Z,101442.59
2017-12-02T10:55:08.476Z,101441.45
2017-12-02T10:57:35.986Z,101431.61
2017-12-02T11:00:03.446Z,101433.17
2017-12-02T11:02:30.936Z,101427.25
2017-12-02T11:04:58.430Z,101434.87
2017-12-02T11:07:25.906Z,101435.27
2017-12-02T11:09:53.377Z,101435.52
2017-12-02T11:12:20.862Z,101436.48
2017-12-02T11:14:48.350Z,101433.77
2017-12-02T11:17:15.812Z,101430.69
2017-12-02T11:19:43.346Z,101423.77
2017-12-02T11:22:10.812Z,101423.27
2017-12-02T11:24:38.361Z,101417.82
2017-12-02T11:27:05.820Z,101415.85
2017-12-02T11:29:33.332Z,101409.28
2017-12-02T11:32:00.822Z,101412.70
2017-12-02T11:34:28.317Z,101416.78
2017-12-02T11:36:55.782Z,101418.61
2017-12-02T11:39:23.299Z,101416.87
2017-12-02T11:41:50.740Z,101416.84
2017-12-02T11:44:18.239Z,101417.48
2017-12-02T11:46:45.776Z,101415.10
2017-12-02T11:49:13.243Z,101408.28
2017-12-02T11:51:40.798Z,101398.81
2017-12-02T11:54:08.334Z,101408.30
2017-12-02T11:56:35.909Z,101411.15
2017-12-02T11:59:03.369Z,101413.27
2017-12-02T12:01:30.854Z,101413.85
2017-12-02T12:03:58.381Z,101416.47
2017-12-02T12:06:25.943Z,101417.33
2017-12-02T12:08:53.391Z,101413.92
2017-12-02T12:11:20.889Z,101412.48
2017-12-02T12:13:48.413Z,101413.16
2017-12-02T12:16:15.885Z,101403.91
2017-12-02T12:18:43.372Z,101405.69
2017-12-02T12:21:10.877Z,101408.78
2017-12-02T12:23:38.485Z,101404.02
2017-12-02T12:26:05.956Z,101407.03
2017-12-02T12:28:33.438Z,101403.65
2017-12-02T12:31:00.906Z,101402.07
2017-12-02T12:33:28.384Z,101406.69
2017-12-02T12:35:55.942Z,101398.97
2017-12-02T12:38:23.415Z,101399.34
2017-12-02T12:40:50.877Z,101405.66
2017-12-02T12:43:18.405Z,101405.49
2017-12-02T12:45:45.915Z,101404.47
2017-12-02T12:48:13.392Z,101401.00
2017-12-02T12:50:40.862Z,101406.98
2017-12-02T12:53:08.325Z,101406.41
2017-12-02T12:55:35.915Z,101401.84
2017-12-02T12:58:03.382Z,101405.29
2017-12-02T13:00:30.860Z,101400.78
2017-12-02T13:02:58.334Z,101402.84
2017-12-02T13:05:25.816Z,101407.78
2017-12-02T13:07:53.444Z,101414.72
2017-12-02T13:10:20.923Z,101417.86
2017-12-02T13:12:48.393Z,101417.55
2017-12-02T13:15:15.875Z,101414.27
2017-12-02T13:17:43.395Z,101418.22
2017-12-02T13:20:10.888Z,101420.92
2017-12-02T13:22:38.355Z,101416.34
2017-12-02T13:25:05.821Z,101421.53
2017-12-02T13:27:33.313Z,101415.06
2017-12-02T13:30:00.796Z,101413.95
2017-12-02T13:32:28.285Z,101417.78
2017-12-02T13:34:55.756Z,101414.42
2017-12-02T13:37:24.229Z,101427.63
2017-12-02T13:39:51.701Z,101425.62
2017-12-02T13:42:19.188Z,101422.57
2017-12-02T13:44:46.660Z,101419.66
2017-12-02T13:47:14.145Z,101422.34
2017-12-02T13:49:41.679Z,101419.95
2017-12-02T13:52:09.176Z,101420.75
2017-12-02T13:54:36.688Z,101422.47
2017-12-02T13:57:04.188Z,101427.69
2017-12-02T13:59:31.653Z,101429.15
2017-12-02T14:01:59.161Z,101433.02
2017-12-02T14:04:26.657Z,101434.16
2017-12-02T14:06:54.113Z,101431.92
2017-12-02T14:09:21.592Z,101440.67
2017-12-02T14:11:49.071Z,101435.48
2017-12-02T14:14:16.550Z,101442.41
2017-12-02T14:16:44.014Z,101439.35
2017-12-02T14:19:11.506Z,101438.09
2017-12-02T14:21:38.976Z,101442.20
2017-12-02T14:24:06.457Z,101442.39
2017-12-02T14:26:33.925Z,101445.17
2017-12-02T14:29:01.425Z,101439.67
2017-12-02T14:31:28.890Z,101439.55
2017-12-02T14:33:56.404Z,101442.11
2017-12-02T14:36:23.861Z,101441.16
2017-12-02T14:38:51.381Z,101439.66
2017-12-02T14:41:18.873Z,101436.60
2017-12-02T14:43:46.398Z,101440.27
2017-12-02T14:46:13.862Z,101447.74
2017-12-02T14:48:41.325Z,101451.10
2017-12-02T14:51:08.826Z,101448.56
2017-12-02T14:53:36.286Z,101443.50
2017-12-02T14:56:03.817Z,101441.88
2017-12-02T14:58:31.322Z,101442.69
2017-12-02T15:00:58.821Z,101446.17
2017-12-02T15:03:26.307Z,101454.34
2017-12-02T15:05:53.796Z,101455.03
2017-12-02T15:08:21.260Z,101452.78
2017-12-02T15:10:48.823Z,101464.06
2017-12-02T15:13:16.284Z,101463.98
2017-12-02T15:15:43.779Z,101459.91
2017-12-02T15:18:11.268Z,101466.95
2017-12-02T15:20:38.818Z,101466.44
2017-12-02T15:23:06.289Z,101468.11
2017-12-02T15:25:33.758Z,101469.28
2017-12-02T15:28:01.244Z,101472.77
2017-12-02T15:30:28.699Z,101471.19
2017-12-02T15:32:56.167Z,101474.09
2017-12-02T15:35:23.619Z,101482.48
2017-12-02T15:37:51.139Z,101483.28
2017-12-02T15:40:18.650Z,101482.06
2017-12-02T15:42:46.201Z,101485.14
2017-12-02T15:45:13.757Z,101493.30
2017-12-02T15:47:41.248Z,101491.41
2017-12-02T15:50:08.730Z,101510.55
2017-12-02T15:52:36.215Z,101507.55
2017-12-02T15:55:03.683Z,101501.98
2017-12-02T15:57:31.169Z,101502.14
2017-12-02T15:59:58.701Z,101502.01
2017-12-02T16:02:26.225Z,101504.16
2017-12-02T16:04:53.688Z,101508.38
2017-12-02T16:07:21.171Z,101505.10
2017-12-02T16:09:48.846Z,101508.14
2017-12-02T16:12:16.349Z,101513.27
2017-12-02T16:14:43.811Z,101520.62
2017-12-02T16:17:11.341Z,101517.91
2017-12-02T16:19:38.868Z,101523.20
2017-12-02T16:22:06.403Z,101521.63
2017-12-02T16:24:36.090Z,101525.11
2017-12-02T16:27:04.048Z,101526.08
2017-12-02T16:29:31.532Z,101528.33
2017-12-02T16:31:59.000Z,101523.50
2017-12-02T16:34:28.872Z,101523.64
2017-12-02T16:36:56.404Z,101524.87
2017-12-02T16:39:23.939Z,101520.48
2017-12-02T16:41:54.964Z,101524.46
2017-12-02T16:44:22.449Z,101527.53
2017-12-02T16:46:49.917Z,101526.13
2017-12-02T16:49:17.916Z,101528.83
2017-12-02T16:51:45.405Z,101523.80
2017-12-02T16:54:12.889Z,101537.27
2017-12-02T16:56:40.374Z,101533.84
2017-12-02T16:59:07.881Z,101536.38
2017-12-02T17:01:35.364Z,101530.72
2017-12-02T17:04:02.825Z,101536.50
2017-12-02T17:06:30.323Z,101536.45
2017-12-02T17:08:57.789Z,101538.88
2017-12-02T17:11:25.275Z,101532.38
2017-12-02T17:13:52.740Z,101531.20
2017-12-02T17:16:20.343Z,101533.61
2017-12-02T17:18:47.810Z,101531.56
2017-12-02T17:21:15.306Z,101529.37
2017-12-02T17:23:46.489Z,101540.17
2017-12-02T17:26:14.021Z,101539.73
2017-12-02T17:28:41.581Z,101540.66
2017-12-02T17:31:09.055Z,101531.98
2017-12-02T17:33:36.597Z,101534.58
2017-12-02T17:36:04.142Z,101527.51
2017-12-02T17:38:31.705Z,101532.41
2017-12-02T17:40:59.169Z,101531.75
2017-12-02T17:43:26.657Z,101538.08
2017-12-02T17:45:54.134Z,101540.06
2017-12-02T17:48:21.618Z,101539.91
2017-12-02T17:50:49.083Z,101549.28
2017-12-02T17:53:16.587Z,101550.14
2017-12-02T17:55:44.070Z,101556.58
2017-12-02T17:58:11.557Z,101553.61
2017-12-02T18:00:39.129Z,101553.77
2017-12-02T18:03:06.622Z,101553.91
2017-12-02T18:05:34.165Z,101560.75
2017-12-02T18:08:01.705Z,101563.41
2017-12-02T18:10:29.303Z,101566.41
2017-12-02T18:12:56.792Z,101567.17
2017-12-02T18:15:24.277Z,101567.88
2017-12-02T18:17:51.749Z,101563.02
2017-12-02T18:20:19.298Z,101561.80
2017-12-02T18:22:46.784Z,101562.77
2017-12-02T18:25:14.255Z,101559.81
2017-12-02T18:27:41.712Z,101564.70
2017-12-02T18:30:09.224Z,101567.84
2017-12-02T18:32:36.775Z,101572.45
2017-12-02T18:35:04.262Z,101577.69
2017-12-02T18:37:31.789Z,101581.52
2017-12-02T18:39:59.286Z,101582.08
2017-12-02T18:42:26.752Z,101579.77
2017-12-02T18:44:54.248Z,101577.91
2017-12-02T18:47:21.779Z,101582.45
2017-12-02T18:49:49.418Z,101584.20
2017-12-02T18:52:16.885Z,101587.31
2017-12-02T18:54:44.353Z,101589.58
2017-12-02T18:57:15.478Z,101586.59
2017-12-02T18:59:42.958Z,101586.80
2017-12-02T19:02:12.952Z,101582.73
2017-12-02T19:04:40.425Z,101588.09
2017-12-02T19:07:07.905Z,101589.09
2017-12-02T19:09:35.385Z,101593.81
2017-12-02T19:12:02.864Z,101582.72
2017-12-02T19:14:30.337Z,101585.86
2017-12-02T19:16:57.829Z,101584.18
2017-12-02T19:19:25.352Z,101584.52
2017-12-02T19:21:52.873Z,101573.70
2017-12-02T19:24:20.431Z,101586.19
2017-12-02T19:26:47.913Z,101581.99
2017-12-02T19:29:15.380Z,101577.88
2017-12-02T19:31:42.842Z,101581.80
2017-12-02T19:34:10.334Z,101585.41
2017-12-02T19:36:40.429Z,101578.66
2017-12-02T19:39:07.918Z,101587.33
2017-12-02T19:41:35.394Z,101586.72
2017-12-02T19:44:02.953Z,101580.79
2017-12-02T19:46:30.419Z,101578.66
2017-12-02T19:48:57.920Z,101578.92
2017-12-02T19:51:25.421Z,101582.66
2017-12-02T19:53:52.933Z,101583.26
2017-12-02T19:56:20.401Z,101582.86
2017-12-02T19:58:47.900Z,101583.55
2017-12-02T20:01:15.355Z,101575.14
2017-12-02T20:03:42.900Z,101574.16
2017-12-02T20:06:10.365Z,101574.12
2017-12-02T20:08:37.850Z,101576.25
2017-12-02T20:11:05.316Z,101572.47
2017-12-02T20:13:32.853Z,101568.05
2017-12-02T20:16:00.326Z,101569.28
2017-12-02T20:18:27.803Z,101568.41
2017-12-02T20:20:55.266Z,101568.98
2017-12-02T20:23:22.765Z,101569.19
2017-12-02T20:25:50.255Z,101574.38
2017-12-02T20:28:17.729Z,101572.14
2017-12-02T20:30:45.229Z,101572.41
2017-12-02T20:33:12.809Z,101571.91
2017-12-02T20:35:40.318Z,101568.80
2017-12-02T20:38:07.785Z,101568.70
2017-12-02T20:40:35.282Z,101567.84
2017-12-02T20:43:02.749Z,101568.78
2017-12-02T20:45:30.223Z,101567.43
2017-12-02T20:47:57.705Z,101569.14
2017-12-02T20:50:25.317Z,101574.41
2017-12-02T20:52:52.805Z,101578.52
2017-12-02T20:55:20.275Z,101575.05
2017-12-02T20:57:47.762Z,101578.13
2017-12-02T21:00:15.368Z,101573.17
2017-12-02T21:02:42.835Z,101580.83
2017-12-02T21:05:10.369Z,101579.77
2017-12-02T21:07:37.834Z,101574.20
2017-12-02T21:10:05.359Z,101572.16
2017-12-02T21:12:32.919Z,101573.11
2017-12-02T21:15:00.405Z,101569.69
2017-12-02T21:17:27.914Z,101575.11
2017-12-02T21:19:55.377Z,101569.97
2017-12-02T21:22:22.852Z,101573.52
2017-12-02T21:24:50.397Z,101575.27
2017-12-02T21:27:17.885Z,101569.75
2017-12-02T21:29:45.356Z,101566.70
2017-12-02T21:32:12.982Z,101564.92
2017-12-02T21:34:40.549Z,101555.23
2017-12-02T21:37:08.108Z,101569.94
2017-12-02T21:39:35.574Z,101556.98
2017-12-02T21:42:03.058Z,101564.19
2017-12-02T21:44:30.511Z,101566.93
2017-12-02T21:46:58.013Z,101572.19
2017-12-02T21:49:25.472Z,101571.13
2017-12-02T21:51:52.978Z,101566.55
2017-12-02T21:54:20.436Z,101570.55
2017-12-02T21:56:47.891Z,101567.43
2017-12-02T21:59:15.381Z,101566.79
2017-12-02T22:01:42.831Z,101568.16
2017-12-02T22:04:10.319Z,101575.11
2017-12-02T22:06:37.790Z,101572.27
2017-12-02T22:09:05.282Z,101572.01
2017-12-02T22:11:32.792Z,101566.03
2017-12-02T22:14:00.276Z,101561.77
2017-12-02T22:16:27.816Z,101563.13
2017-12-02T22:18:55.286Z,101565.11
2017-12-02T22:21:22.741Z,101561.05
2017-12-02T22:23:50.303Z,101562.13
2017-12-02T22:26:17.779Z,101556.76
2017-12-02T22:28:45.274Z,101546.23
2017-12-02T22:31:12.737Z,101544.30
2017-12-02T22:33:40.210Z,101542.92
2017-12-02T22:36:07.721Z,101540.47
2017-12-02T22:38:35.196Z,101538.83
2017-12-02T22:41:02.668Z,101540.55
2017-12-02T22:43:30.133Z,101541.42
2017-12-02T22:45:57.621Z,101548.67
2017-12-02T22:48:25.141Z,101545.11
2017-12-02T22:50:52.629Z,101545.44
2017-12-02T22:53:20.150Z,101553.98
2017-12-02T22:55:47.641Z,101553.66
2017-12-02T22:58:15.132Z,101545.05
2017-12-02T23:00:42.602Z,101547.38
2017-12-02T23:03:10.084Z,101556.21
2017-12-02T23:05:37.921Z,101556.76
2017-12-02T23:08:05.467Z,101553.14
2017-12-02T23:10:32.901Z,101560.78
2017-12-02T23:13:00.385Z,101557.88
2017-12-02T23:15:27.888Z,101552.89
2017-12-02T23:17:55.359Z,101553.40
2017-12-02T23:20:22.850Z,101546.75
2017-12-02T23:22:50.352Z,101539.50
2017-12-02T23:25:17.812Z,101549.69
2017-12-02T23:27:45.304Z,101540.14
2017-12-02T23:30:12.751Z,101535.83
2017-12-02T23:32:40.288Z,101531.61
2017-12-02T23:35:07.768Z,101528.93
2017-12-02T23:37:35.347Z,101533.36
2017-12-02T23:40:02.821Z,101533.59
2017-12-02T23:42:30.312Z,101527.72
2017-12-02T23:44:57.794Z,101527.17
2017-12-02T23:47:25.265Z,101528.06
2017-12-02T23:49:52.750Z,101523.73
2017-12-02T23:52:20.248Z,101519.16
2017-12-02T23:54:47.772Z,101522.83
2017-12-02T23:57:15.237Z,101520.45
2017-12-02T23:59:42.729Z,101519.88
